Address 0xe7b525bef4386eb90751b4eb4d536b44e43ef187 2

Txn Hash Method
Block
From
To
Value [Txn Fee]
0xeeaf0becaea0742ea8d79a7a656f82fe991f5542cb06b352a65f276388ed6b88Approve58346862022-12-02 18:56:173 days 6 hrs ago0xe7b525bef4386eb90751b4eb4d536b44e43ef187OUT 0x3916598d3c1aa1252d3f7bf5b428b1303d87a9cc0 CRO0.2148027403170
0x0f813545f4fca4ed287a0876eed395d875ad3c98d2cc0ddab488f79e71d1b41cDeposit58346812022-12-02 18:55:483 days 6 hrs ago0xe7b525bef4386eb90751b4eb4d536b44e43ef187OUT 0x9ba0b32330cf0c623a98fc773f79b9513196b6fe0 CRO0.9165338865630
0x33a6d35e38d1468a2f6a06ec00081537db9e7bab136a127cad4c61afc7c5ecd0Approve58346732022-12-02 18:55:033 days 6 hrs ago0xe7b525bef4386eb90751b4eb4d536b44e43ef187OUT 0x3916598d3c1aa1252d3f7bf5b428b1303d87a9cc0 CRO0.1418481291890
0x7c6ff41ff97d1c6f981dfad5b2a3be6af3b2639704eb886b9be3c50fae3a9f87Enter Pool57917372022-11-29 23:09:086 days 1 hr ago0xe7b525bef4386eb90751b4eb4d536b44e43ef187OUT 0x7fe4db9063b7dd7ba55313b9c258070bed2c143a0 CRO0.3795250
0x846a28c50c1247d85ac36a2b1ed30e4ef5f63732fe76808f192af75f40e69726Deposit57917072022-11-29 23:06:176 days 1 hr ago0xe7b525bef4386eb90751b4eb4d536b44e43ef187OUT 0x990e9683e6ba5079cdb235838856029a50dad84c0 CRO1.141950
0x192984d5cb32a181f2df9ee0b0f7c98ef53ff2ec545b328b7a3accf72c8a4a45Deposit57917002022-11-29 23:05:336 days 1 hr ago0xe7b525bef4386eb90751b4eb4d536b44e43ef187OUT VVS Finance: Craftsman0 CRO0.7601250
0x12d7f39af9b39394e365eb77c2cdaeb6be7dc03edca8d7bcdf32fdeb97a7d0deDeposit56762512022-11-22 8:24:5113 days 16 hrs ago0xe7b525bef4386eb90751b4eb4d536b44e43ef187OUT CronaSwap: Vault0 CRO1.4959459978030
0xa6582acf5ef8338a1b00e7982d8b2237747bf49ab8ee9ed5ed110a39a01c368dWithdraw All56761962022-11-22 8:19:3913 days 16 hrs ago0xe7b525bef4386eb90751b4eb4d536b44e43ef187OUT CronaSwap: Vault0 CRO1.2988869978050
0xc34efcab97a2ca9fcb7a93b1d40308f211436eccea9601c6d750540f4b2a21d2Approve55987372022-11-17 6:23:0518 days 18 hrs ago0xe7b525bef4386eb90751b4eb4d536b44e43ef187OUT 0x3916598d3c1aa1252d3f7bf5b428b1303d87a9cc0 CRO0.1421663068630
0xda4f2365344f8c7b9bd4c16a4cc7ea85ca4d78b0d2c84995212a96bad2b1052fApprove55987232022-11-17 6:21:4618 days 18 hrs ago0xe7b525bef4386eb90751b4eb4d536b44e43ef187OUT 0x3916598d3c1aa1252d3f7bf5b428b1303d87a9cc0 CRO0.2151676236010
0x933ff6ddaf60c9409c85767043f4f1d6d7a15cbb7b8d147b74ce60d3c55886f8Buy55987102022-11-17 6:20:3218 days 18 hrs ago0xe7b525bef4386eb90751b4eb4d536b44e43ef187OUT 0xcbfa29eedafa0a0f34c5e1b02cfab1d51ff654440 CRO0.6301188683210
0x53294df80238cc45e75483edf4ecbff9aab43aceec3d66bf993eb1f6dac9d8e0Swap Exact Token...55986942022-11-17 6:19:0118 days 18 hrs ago0xe7b525bef4386eb90751b4eb4d536b44e43ef187OUT CronaSwap: Router0 CRO1.0829250
0x1ef7fd961db8ebfa6ebb5fb8b35199fbccf1cdbb21e6bd9dd8e957e530be7991Enter Pool55946182022-11-16 23:54:1819 days 1 hr ago0xe7b525bef4386eb90751b4eb4d536b44e43ef187OUT 0x7fe4db9063b7dd7ba55313b9c258070bed2c143a0 CRO0.3795250
0x2dcba627b030491fd7bb4fe1dc58c60b8baa179009f446da5be1945374837504Swap Exact Token...55946082022-11-16 23:53:2219 days 1 hr ago0xe7b525bef4386eb90751b4eb4d536b44e43ef187OUT VVS Finance: Router0 CRO0.5872750
0x4f4edd46d2a303cf49a6cf000d30d17682493dab9efe09649d9e14229f9e1277Mint52777202022-10-27 3:39:2739 days 21 hrs ago0xe7b525bef4386eb90751b4eb4d536b44e43ef187OUT 0xeadf7c01da7e93fdb5f16b0aa9ee85f978e89e953,000 CRO0.9801689610560
0x94bcb7f0472cef53d1af711da85e1bc0d41f7a712d76e69019b27681b58bd943Approve52775722022-10-27 3:25:3039 days 21 hrs ago0xe7b525bef4386eb90751b4eb4d536b44e43ef187OUT 0x3916598d3c1aa1252d3f7bf5b428b1303d87a9cc0 CRO0.2159289658550
0x6424cbe01c4cd79ae48b3855d73efdee06b5a74741fc0081abccbae0c87dcd0aDeposit52775692022-10-27 3:25:1439 days 21 hrs ago0xe7b525bef4386eb90751b4eb4d536b44e43ef187OUT 0x9ba0b32330cf0c623a98fc773f79b9513196b6fe0 CRO0.8377447641080
0x842e18a99b5ab043f27cb417cc45fa6a7976192ed9df8a1b41a64a9e21f03caaDeposit52775622022-10-27 3:24:3439 days 21 hrs ago0xe7b525bef4386eb90751b4eb4d536b44e43ef187OUT CronaSwap: Vault0 CRO1.501529026660
0xe9a5134eca492532c3a6068e3e100dc6acb26badac364db9750ea936d24437feApprove52775262022-10-27 3:21:1139 days 21 hrs ago0xe7b525bef4386eb90751b4eb4d536b44e43ef187OUT 0x3916598d3c1aa1252d3f7bf5b428b1303d87a9cc0 CRO0.1425918947760
0x3f8f4a7f572265da9c903372369fdb33ac65720e4b491ae04cd8f1bb3be3a999Approve52774762022-10-27 3:16:2839 days 21 hrs ago0xe7b525bef4386eb90751b4eb4d536b44e43ef187OUT 0x3916598d3c1aa1252d3f7bf5b428b1303d87a9cc0 CRO0.1425919617920
0xe175863ce167fe8cf6d29ebc0c481a5b1649fdbe58304b8f5611cb514369b586Approve52774582022-10-27 3:14:4639 days 21 hrs ago0xe7b525bef4386eb90751b4eb4d536b44e43ef187OUT 0x3916598d3c1aa1252d3f7bf5b428b1303d87a9cc0 CRO0.1425919861360
0x8eeb55dcaadbe1aa997b36e662dc5a199da16ec1b89de0a5460527f98e1e06e7Withdraw52774452022-10-27 3:13:3339 days 21 hrs ago0xe7b525bef4386eb90751b4eb4d536b44e43ef187OUT 0xa6b7cebedf89db224f31046f0720ca9dc8c74eb60 CRO0.584742117360
0x0c3b795bf5e09a2381214f6afb00f375e03ceaeca3c79d126b780ee14a552655Deposit52774392022-10-27 3:12:5939 days 21 hrs ago0xe7b525bef4386eb90751b4eb4d536b44e43ef187OUT 0xa6b7cebedf89db224f31046f0720ca9dc8c74eb60 CRO0.5855488601160
0x785ebeb71d7feced6a2b062b9e4f46b58093f01683713690f861e61177b846abSwap Exact Token...52774012022-10-27 3:09:2439 days 21 hrs ago0xe7b525bef4386eb90751b4eb4d536b44e43ef187OUT CronaSwap: Router0 CRO0.614230
0x9d2b2b499393dcb845024c51fbdc0836d1a589e874890d40103d98476d8d2575Swap Exact Token...52773952022-10-27 3:08:5039 days 21 hrs ago0xe7b525bef4386eb90751b4eb4d536b44e43ef187OUT CronaSwap: Router0 CRO1.008180
[ Download CSV Export 
Latest 5 internal transactions
Parent Txn Hash Block From To Value
0xa9acd2770311462d9fdc82d4a4af915cab29ccda5b68eda4bbffbcc9b74acf2752773392022-10-27 3:03:3339 days 21 hrs ago VVS Finance: Router0xe7b525bef4386eb90751b4eb4d536b44e43ef1873,076.101041273524512894 CRO
0x41500cdfb58bf14e6dfea73ec0a530cb06554879a762757f20a74ae9f3d28ac328558292022-05-20 18:07:11199 days 6 hrs ago VVS Finance: Router0xe7b525bef4386eb90751b4eb4d536b44e43ef18715.759934628387704135 CRO
0xb8c84d3937a683aab9450ef08beade87632c3e87f96e9c0dfe37cfddb484f52d18113362022-03-08 16:18:42272 days 8 hrs ago VVS Finance: Router0xe7b525bef4386eb90751b4eb4d536b44e43ef1871,517.382079718930179576 CRO
0x76e6b4deb35a58fb14edf457726766396a80396cbb9295e35811a2a891e9cde414939562022-02-15 6:23:57293 days 18 hrs ago VVS Finance: Router0xe7b525bef4386eb90751b4eb4d536b44e43ef187448.062689882206579363 CRO
0xa1c4f91d64c10bbbb1b0400a8384bf017050c257f1693ec3247662ec6c35b57d3446372021-11-30 9:22:05370 days 15 hrs ago VVS Finance: Router0xe7b525bef4386eb90751b4eb4d536b44e43ef1870.004395675607539797 CRO
[ Download CSV Export 
Loading

Contract Name:
0

Compiler Version
0

Optimization Enabled:
0

Other Settings:
-NA-
Block Transaction Gas Used Reward
Age Block Fee Address BC Fee Address Voting Power Jailed Incoming
Block Uncle Number Difficulty Gas Used Reward
Loading
Make sure to use the "Vote Down" button for any spammy posts, and the "Vote Up" for interesting conversations.